17 Ocak 2021, Pazar 14:08:14

Anadolujet uçağı geri döndü

Erzincan'da ters rüzgar nedeniyle havalimanına inemeyen Anadolujet uçağı, Ankara Esenboğa Havalimanı'na geri döndü.
  • LTCE 170750Z 25007KT 190V270 9999 BKN035 BKN070 03/M04 Q1006 gün boyu da bkn035/bkn 025 devam etmiş erzincan loc mda 4189 ft , pilot olmayanlar için açıklamak gerekirse alçalmada pisti göremeyince bekleme yapmış ancak hava düzelmeyince tekrar ankaraya dönmüş.
  • Pilot inmeye tırsmış olabilir ama gerek yok biz görevimizin başındayız ALEM SARSILIR ARFF SARSILMAZ
  • Ben olsam o kadar yolu geri döneceğime iki tur atardım, geri döndüğünde rüzgar zaten dinmiştir.
  • Erzincan’a turlu var ki. Turlu minimumlarının altındaysa limitler bunun sebebi rüzgar değildir.

Erzincan'da ters rüzgar nedeniyle havalimanına inemeyen Anadolujet uçağı, Ankara Esenboğa Havalimanı'na geri döndü.

Ankara Esenboğa Havalimanı'ndan havalanan ve Erzincan Havalimanı'na iniş yapmak isteyen TK 7078 sefer sayılı yolcu uçağı, ters rüzgar nedeniyle Erzincan Havalimanı'na iniş yapmadı.

Olumsuz hava koşulları nedeniyle inişi gerçekleştiremeyen uçağın 29 yolcusuyla Ankara Esenboğa Havalimanı'na dönüş yaptığı öğrenildi.

Anadolujet uçağı geri döndü

Facebook Yorum

Yorumlar Tüm Yorumlar (8)

geçmiş olsun ~ 4 ay önce
LTCE 170750Z 25007KT 190V270 9999 BKN035 BKN070 03/M04 Q1006 gün boyu da bkn035/bkn 025 devam etmiş erzincan loc mda 4189 ft , pilot olmayanlar için açıklamak gerekirse alçalmada pisti göremeyince bekleme yapmış ancak hava düzelmeyince tekrar ankaraya dönmüş.

Yanıtla

Kalan karakter 1000
ilave olarak da ~ 4 ay önce
meslektaşımı tebrik ediyorum. erzincan zorlu bir meydandır. (cat c) tekrar geçmiş olsun doğru olanı yapmış.yukarıda verdiğim havada bu uçağı o meydana dispatch eden kişiler, havacılığın şu zor döneminde thy nin bir de kazayı kaldırmayacağını bir düşünmeliler. havacılıkta emniyetin on time operasyondan önemli olduğunu söylemeye gerek var mı?
Arff ~ 4 ay önce
Pilot inmeye tırsmış olabilir ama gerek yok biz görevimizin başındayız ALEM SARSILIR ARFF SARSILMAZ

Yanıtla

Kalan karakter 1000
mangal team ~ 4 ay önce
filenin sultanları sizi
Mesul Kaptan ~ 4 ay önce
Ben olsam o kadar yolu geri döneceğime iki tur atardım, geri döndüğünde rüzgar zaten dinmiştir.

Yanıtla

Kalan karakter 1000
:-) ~ 4 ay önce
hava raporuna göre rüzgarda sıkıntı yok, sorun minimada bulut nedeniyle pisti görememek, kaptan yaklaşık 12 tur atmış zaten
Ters rüzgar derken? ~ 4 ay önce
Erzincan’a turlu var ki. Turlu minimumlarının altındaysa limitler bunun sebebi rüzgar değildir.

Yanıtla

Kalan karakter 1000
peki ~ 4 ay önce
turlu yaklaşma yapmak için uygun bir hava varmıymış, hava durumunu incelediniz mi

Yorum Gönder

Kalan karakter 1000